Ocean Tomo — 3FID9 — position and weather

sailwx.info

Track history (hours):
 
Tides and Currents Weather Stations Pressure Air Temp Water Temp Dewpoint Dewpoint Depression Visibility Wind Speed Wind Dir Waves Ship Positions

Ocean Tomo

Last reported at 2016-Dec-11 13:28 UTC. Time now 2016-Dec-11 14:05 UTC.
Position N 46°04' W 122°54'.

Length 190 m; draft 6.1 m.

Type: Ship. MMSI: 372951000.

Date/timePositionNaut miles runAvg speedWind from/ knotsBaromVisibWave heightAir tempDewpointWater temp
2016-Dec-11 13:28N 46°04' W 122°54'0 0.0
2016-Dec-11 12:31N 46°04' W 122°54'0 0.0
2016-Dec-11 11:31N 46°04' W 122°54'0 0.0
2016-Dec-11 10:31N 46°04' W 122°54'0 0.0
2016-Dec-11 09:31N 46°04' W 122°54'0 0.0
2016-Dec-11 08:25N 46°04' W 122°54'0 0.0
2016-Dec-11 07:31N 46°04' W 122°54'0 0.0
2016-Dec-11 06:31N 46°04' W 122°54'0 0.0
2016-Dec-11 05:28N 46°04' W 122°54'0 0.0
2016-Dec-11 04:31N 46°04' W 122°54'0 0.0
2016-Dec-11 03:31N 46°04' W 122°54'0 0.0
2016-Dec-11 02:31N 46°04' W 122°54'2 2.5
2016-Dec-11 01:33N 46°06' W 122°56'10 9.9
2016-Dec-11 00:33N 46°11' W 123°08'1110.7
2016-Dec-10 23:34N 46°09' W 123°23'9 9.0
2016-Dec-10 22:33N 46°16' W 123°32'1110.9
2016-Dec-10 21:33N 46°13' W 123°47'8 7.8
2016-Dec-10 20:33N 46°14' W 123°58'9 9.4
2016-Dec-10 19:33N 46°13' W 124°12'1413.9
2016-Dec-10 18:33N 46°13' W 124°32'1413.8
2016-Dec-10 17:33N 46°13' W 124°52'1414.0
2016-Dec-10 16:34N 46°13' W 125°12'1413.8
2016-Dec-10 15:33N 46°13' W 125°32'  
Track history (hours):
 
Tides and Currents Weather Stations Pressure Air Temp Water Temp Dewpoint Dewpoint Depression Visibility Wind Speed Wind Dir Waves Ship Positions

Ocean Tomo

Last reported at 2016-Dec-11 13:28 UTC. Time now 2016-Dec-11 14:05 UTC.
Position N 46°04' W 122°54'.

Length 190 m; draft 6.1 m.

Type: Ship. MMSI: 372951000.

Date/timePositionNaut miles runAvg speedWind from/ knotsBaromVisibWave heightAir tempDewpointWater temp
2016-Dec-11 13:28N 46°04' W 122°54'0 0.0
2016-Dec-11 12:31N 46°04' W 122°54'0 0.0
2016-Dec-11 11:31N 46°04' W 122°54'0 0.0
2016-Dec-11 10:31N 46°04' W 122°54'0 0.0
2016-Dec-11 09:31N 46°04' W 122°54'0 0.0
2016-Dec-11 08:25N 46°04' W 122°54'0 0.0
2016-Dec-11 07:31N 46°04' W 122°54'0 0.0
2016-Dec-11 06:31N 46°04' W 122°54'0 0.0
2016-Dec-11 05:28N 46°04' W 122°54'0 0.0
2016-Dec-11 04:31N 46°04' W 122°54'0 0.0
2016-Dec-11 03:31N 46°04' W 122°54'0 0.0
2016-Dec-11 02:31N 46°04' W 122°54'2 2.5
2016-Dec-11 01:33N 46°06' W 122°56'10 9.9
2016-Dec-11 00:33N 46°11' W 123°08'1110.7
2016-Dec-10 23:34N 46°09' W 123°23'9 9.0
2016-Dec-10 22:33N 46°16' W 123°32'1110.9
2016-Dec-10 21:33N 46°13' W 123°47'8 7.8
2016-Dec-10 20:33N 46°14' W 123°58'9 9.4
2016-Dec-10 19:33N 46°13' W 124°12'1413.9
2016-Dec-10 18:33N 46°13' W 124°32'1413.8
2016-Dec-10 17:33N 46°13' W 124°52'1414.0
2016-Dec-10 16:34N 46°13' W 125°12'1413.8
2016-Dec-10 15:33N 46°13' W 125°32'  

Dump ship's entire track history